Chadds Ford, PA

8:42 AM EST on December 27, 2014 (GMT -0500)
Chadds Ford Farm | Change Station
CLOSE
Current Station
Personal Weather Station
Location: Chadds Ford, PA
Elevation: 180 ft
Nearby Weather Stations

Elev 180 ft 39.87 °N, 75.59 °W | Updated 4 minutes ago

Partly Cloudy
Partly Cloudy
28.5 °F
Feels Like 28 °F
N
0.0
Wind Variable Wind from ESE
Gusts 0.0 mph

Today
High -- | Low -- °F
--% Chance of Precip.
Yesterday
High -- | Low -- °F
Precip. -- in
7:22 AM 4:44 PM
Waxing Crescent, 36% visible
Pressure 30.28 in
Visibility 5.0 miles
Clouds Clear
Windchill 28 °F
Dew Point 28 °F
Humidity 96%
Rainfall 0.00 in
Snow Depth Not available.
UV 0.0 out of 12
Pollen .10 out of 12
Air Quality Not available.
Flu Activity Not available.
METAR KILG 271251Z 00000KT 5SM BR CLR 00/M01 A3028 RMK AO2 SLP254 T00001011

More Conditions Fewer Conditions

Pressure 30.28 in
Visibility 5.0 miles
Clouds Clear
Windchill 28 °F
Dew Point 28 °F
Humidity 96%
Rainfall 0.00 in
Snow Depth Not available.
UV 0.0 out of 12
Pollen .10 out of 12
Air Quality Not available.
Flu Activity Not available.
METAR KILG 271251Z 00000KT 5SM BR CLR 00/M01 A3028 RMK AO2 SLP254 T00001011

More Conditions Fewer Conditions

10-Day Weather Forecast

Almanac

Astronomy

Dec. 27, 2014 Rise Set
Actual Time
Civil Twilight
Nautical Twilight
Astronomical Twilight
Moon
Length of Visible Light
Length of Day
Tomorrow will be .
, % of the Moon is Illuminated

Today's Extremes

State Highs State Lows

Community

WunderPhotos

Upload Photos

1,780,899 photos uploaded!

WunderBlogs® & News

Nearby

Air Quality

  Air Quality AQ Index Pollutant
Not available.

Snow Depth

Station Depth Elevation

Earthquake Activity

City Distance Mag. Time & Date
Minimum magnitude displayed is 2.5.

Coastal Water Temperatures

Place Temperature

Nearby Weather Stations